Flugplatz Stuttgart

Bericht für EDDS

vom 10.04. um 11:20 UTC

Wind 3 kt aus 190°

Sichtweite 10 km oder mehr

gute Sicht, keine Wolken < 5000 ft, keine CB, keine Wettererscheinungen (CAVOK)

Temperatur 12.0°C

Taupunkt 3.0°C

Luftfeuchtigkeit 54%

Luftdruck 1015 hPa

keine wesentliche Wetteränderung innerhalb den nächsten 2 Stunden zu erwarten

EDDS 101120Z 19003KT 080V230 CAVOK 12/03 Q1015 NOSIG

Prognose für EDDS

vom 10.04. um 11:00 UTC

Zwischen 12:00 UTC und 16:00 UTC

Wind 6 kt aus 220°

Sichtweite 10 km oder mehr

gering bewölkt in 4500 ft


Zwischen 16:00 und 18:00 UTC übergehend zu

variable Windrichtung mit 3 kt

Sichtweite 10 km oder mehr

gering bewölkt in 4500 ft

TAF EDDS 101100Z 1012/1112 22006KT 9999 FEW045 BECMG 1016/1018 VRB03KT
Impressum